createdAt,value
2023-02-09T00:02:23.953Z,-0.70
2023-02-09T00:04:50.675Z,-0.65
2023-02-09T00:07:17.330Z,-0.61
2023-02-09T00:09:45.384Z,-0.66
2023-02-09T00:12:30.743Z,-0.66
2023-02-09T00:14:57.341Z,-0.63
2023-02-09T00:17:24.049Z,-0.61
2023-02-09T00:19:50.677Z,-0.66
2023-02-09T00:22:17.300Z,-0.66
2023-02-09T00:24:43.997Z,-0.63
2023-02-09T00:27:10.727Z,-0.58
2023-02-09T00:29:37.453Z,-0.61
2023-02-09T00:32:04.423Z,-0.64
2023-02-09T00:34:31.108Z,-0.69
2023-02-09T00:36:57.812Z,-0.58
2023-02-09T00:39:24.457Z,-0.60
2023-02-09T00:42:06.200Z,-0.66
2023-02-09T00:44:37.940Z,-0.72
2023-02-09T00:47:06.732Z,-0.62
2023-02-09T00:49:33.827Z,-0.74
2023-02-09T00:52:00.723Z,-0.73
2023-02-09T00:54:27.591Z,-0.65
2023-02-09T00:56:58.701Z,-0.63
2023-02-09T00:59:26.091Z,-0.64
2023-02-09T01:01:52.767Z,-0.61
2023-02-09T01:04:19.421Z,-0.61
2023-02-09T01:06:46.126Z,-0.69
2023-02-09T01:09:12.848Z,-0.73
2023-02-09T01:11:39.524Z,-0.52
2023-02-09T01:14:06.310Z,-0.72
2023-02-09T01:16:33.077Z,-0.60
2023-02-09T01:19:01.906Z,-0.78
2023-02-09T01:21:30.571Z,-0.80
2023-02-09T01:23:57.918Z,-0.82
2023-02-09T01:26:24.601Z,-0.73
2023-02-09T01:28:53.140Z,-0.77
2023-02-09T01:31:32.029Z,-0.71
2023-02-09T01:34:01.042Z,-0.87
2023-02-09T01:36:28.648Z,-0.95
2023-02-09T01:38:56.777Z,-1.00
2023-02-09T01:41:23.761Z,-1.08
2023-02-09T01:44:07.212Z,-1.14
2023-02-09T01:46:35.906Z,-0.92
2023-02-09T01:49:13.534Z,-0.94
2023-02-09T01:52:03.400Z,-1.11
2023-02-09T01:54:33.022Z,-0.91
2023-02-09T01:57:08.137Z,-0.91
2023-02-09T01:59:36.875Z,-0.99
2023-02-09T02:02:05.786Z,-0.99
2023-02-09T02:04:34.137Z,-0.90
2023-02-09T02:07:11.262Z,-0.84
2023-02-09T02:09:37.926Z,-1.02
2023-02-09T02:12:05.560Z,-1.16
2023-02-09T02:14:35.443Z,-1.04
2023-02-09T02:17:37.386Z,-0.98
2023-02-09T02:20:13.139Z,-1.09
2023-02-09T02:22:39.655Z,-1.07
2023-02-09T02:25:54.447Z,-1.13
2023-02-09T02:28:21.059Z,-1.07
2023-02-09T02:31:02.956Z,-1.12
2023-02-09T02:33:40.408Z,-1.10
2023-02-09T02:36:21.293Z,-1.26
2023-02-09T02:39:11.143Z,-1.11
2023-02-09T02:42:06.978Z,-1.17
2023-02-09T02:44:40.288Z,-1.09
2023-02-09T02:47:11.349Z,-1.25
2023-02-09T02:49:42.497Z,-1.09
2023-02-09T02:52:11.327Z,-1.12
2023-02-09T02:54:42.400Z,-1.17
2023-02-09T02:57:15.628Z,-1.08
2023-02-09T02:59:46.558Z,-1.16
2023-02-09T03:02:35.004Z,-1.14
2023-02-09T03:05:04.331Z,-1.12
2023-02-09T03:07:31.922Z,-1.10
2023-02-09T03:09:58.696Z,-1.12
2023-02-09T03:12:51.089Z,-1.13
2023-02-09T03:15:40.272Z,-1.16
2023-02-09T03:18:31.196Z,-1.09
2023-02-09T03:21:12.198Z,-1.12
2023-02-09T03:24:14.481Z,-1.07
2023-02-09T03:26:54.370Z,-1.10
2023-02-09T03:29:23.823Z,-1.10
2023-02-09T03:31:51.198Z,-1.16
2023-02-09T03:34:18.773Z,-1.16
2023-02-09T03:36:51.872Z,-1.24
2023-02-09T03:39:18.573Z,-1.15
2023-02-09T03:41:45.287Z,-1.18
2023-02-09T03:44:27.117Z,-1.21
2023-02-09T03:46:55.782Z,-1.09
2023-02-09T03:49:22.988Z,-1.02
2023-02-09T03:51:49.746Z,-1.13
2023-02-09T03:54:16.496Z,-1.22
2023-02-09T03:56:43.165Z,-1.19
2023-02-09T03:59:09.881Z,-1.09
2023-02-09T04:01:36.667Z,-1.20
2023-02-09T04:04:04.155Z,-1.27
2023-02-09T04:06:32.244Z,-1.25
2023-02-09T04:08:59.824Z,-1.19
2023-02-09T04:11:26.942Z,-1.18
2023-02-09T04:13:53.838Z,-1.05
2023-02-09T04:16:20.652Z,-1.09
2023-02-09T04:18:47.458Z,-1.19
2023-02-09T04:21:14.171Z,-1.16
2023-02-09T04:23:40.944Z,-1.05
2023-02-09T04:26:07.629Z,-1.03
2023-02-09T04:28:34.843Z,-1.13
2023-02-09T04:31:01.585Z,-1.19
2023-02-09T04:33:28.363Z,-1.26
2023-02-09T04:35:54.995Z,-1.19
2023-02-09T04:38:22.369Z,-1.35
2023-02-09T04:40:51.000Z,-1.21
2023-02-09T04:43:18.494Z,-1.38
2023-02-09T04:45:45.775Z,-1.35
2023-02-09T04:48:15.039Z,-1.39
2023-02-09T04:50:42.429Z,-1.33
2023-02-09T04:53:09.203Z,-1.22
2023-02-09T04:55:40.364Z,-1.18
2023-02-09T04:58:25.526Z,-1.31
2023-02-09T05:00:55.380Z,-1.23
2023-02-09T05:03:24.489Z,-1.19
2023-02-09T05:05:58.574Z,-1.09
2023-02-09T05:08:25.453Z,-1.23
2023-02-09T05:10:53.175Z,-1.26
2023-02-09T05:13:21.320Z,-1.31
2023-02-09T05:15:48.102Z,-1.41
2023-02-09T05:18:14.951Z,-1.40
2023-02-09T05:20:43.428Z,-1.26
2023-02-09T05:23:10.844Z,-1.29
2023-02-09T05:25:38.176Z,-1.22
2023-02-09T05:28:05.817Z,-1.17
2023-02-09T05:30:32.961Z,-1.15
2023-02-09T05:32:59.626Z,-1.05
2023-02-09T05:35:26.437Z,-1.16
2023-02-09T05:37:53.171Z,-1.21
2023-02-09T05:40:19.908Z,-1.14
2023-02-09T05:42:46.531Z,-1.14
2023-02-09T05:45:13.242Z,-1.18
2023-02-09T05:47:39.969Z,-1.01
2023-02-09T05:50:06.789Z,-0.97
2023-02-09T05:52:33.580Z,-1.07
2023-02-09T05:55:00.252Z,-0.92
2023-02-09T05:57:26.976Z,-1.12
2023-02-09T05:59:53.621Z,-1.12
2023-02-09T06:02:20.712Z,-1.04
2023-02-09T06:04:47.414Z,-1.12
2023-02-09T06:07:14.109Z,-1.13
2023-02-09T06:09:40.915Z,-1.10
2023-02-09T06:12:07.706Z,-1.08
2023-02-09T06:14:34.372Z,-1.08
2023-02-09T06:17:01.270Z,-1.23
2023-02-09T06:19:30.194Z,-1.06
2023-02-09T06:21:56.847Z,-1.12
2023-02-09T06:24:23.538Z,-0.97
2023-02-09T06:26:50.298Z,-0.96
2023-02-09T06:29:16.919Z,-0.98
2023-02-09T06:31:43.672Z,-0.86
2023-02-09T06:34:10.508Z,-0.88
2023-02-09T06:36:37.215Z,-1.02
2023-02-09T06:39:08.189Z,-0.85
2023-02-09T06:41:34.858Z,-0.88
2023-02-09T06:44:01.604Z,-0.99
2023-02-09T06:46:28.832Z,-0.80
2023-02-09T06:48:55.668Z,-0.85
2023-02-09T06:51:22.593Z,-0.86
2023-02-09T06:53:49.514Z,-0.81
2023-02-09T06:56:16.256Z,-0.81
2023-02-09T06:58:43.017Z,-0.85
2023-02-09T07:01:12.450Z,-0.74
2023-02-09T07:03:39.246Z,-0.81
2023-02-09T07:06:12.500Z,-0.81
2023-02-09T07:08:39.468Z,-0.89
2023-02-09T07:11:12.325Z,-0.79
2023-02-09T07:13:39.251Z,-0.72
2023-02-09T07:16:08.388Z,-0.72
2023-02-09T07:18:35.969Z,-0.77
2023-02-09T07:21:19.820Z,-0.61
2023-02-09T07:23:53.316Z,-0.69
2023-02-09T07:26:20.098Z,-0.59
2023-02-09T07:28:47.120Z,-0.41
2023-02-09T07:31:15.691Z,-0.45
2023-02-09T07:33:42.610Z,-0.39
2023-02-09T07:36:12.123Z,-0.24
2023-02-09T07:38:39.450Z,-0.34
2023-02-09T07:41:08.357Z,-0.37
2023-02-09T07:43:35.211Z,-0.25
2023-02-09T07:46:07.689Z,0.00
2023-02-09T07:48:35.581Z,0.03
2023-02-09T07:51:02.678Z,0.15
2023-02-09T07:53:29.952Z,0.12
2023-02-09T07:55:57.335Z,0.15
2023-02-09T07:58:24.060Z,0.20
2023-02-09T08:00:51.583Z,0.29
2023-02-09T08:03:23.137Z,0.23
2023-02-09T08:06:04.212Z,0.30
2023-02-09T08:08:31.068Z,0.37
2023-02-09T08:10:59.537Z,0.47
2023-02-09T08:13:30.635Z,0.69
2023-02-09T08:16:02.949Z,0.76
2023-02-09T08:18:34.444Z,0.80
2023-02-09T08:21:01.167Z,0.70
2023-02-09T08:23:34.381Z,0.99
2023-02-09T08:26:06.511Z,0.96
2023-02-09T08:28:43.657Z,0.98
2023-02-09T08:31:12.979Z,0.86
2023-02-09T08:33:40.417Z,0.81
2023-02-09T08:36:07.701Z,1.02
2023-02-09T08:38:35.349Z,1.05
2023-02-09T08:41:06.892Z,1.04
2023-02-09T08:43:33.837Z,1.07
2023-02-09T08:46:12.577Z,1.28
2023-02-09T08:48:42.204Z,1.27
2023-02-09T08:51:12.113Z,1.34
2023-02-09T08:53:39.211Z,1.39
2023-02-09T08:56:06.276Z,1.58
2023-02-09T08:58:33.526Z,1.60
2023-02-09T09:01:00.599Z,1.61
2023-02-09T09:03:31.335Z,1.65
2023-02-09T09:05:59.610Z,1.66
2023-02-09T09:08:26.456Z,1.48
2023-02-09T09:10:53.262Z,1.57
2023-02-09T09:13:20.891Z,1.63
2023-02-09T09:15:48.097Z,1.55
2023-02-09T09:18:15.118Z,1.72
2023-02-09T09:20:42.320Z,1.64
2023-02-09T09:23:09.561Z,1.79
2023-02-09T09:25:38.818Z,1.73
2023-02-09T09:28:06.564Z,1.68
2023-02-09T09:30:33.654Z,1.80
2023-02-09T09:33:00.502Z,1.97
2023-02-09T09:35:27.883Z,1.84
2023-02-09T09:37:57.332Z,1.87
2023-02-09T09:40:37.200Z,1.82
2023-02-09T09:43:07.710Z,1.90
2023-02-09T09:45:38.484Z,1.79
2023-02-09T09:48:07.294Z,1.93
2023-02-09T09:50:41.308Z,2.25
2023-02-09T09:53:17.467Z,1.98
2023-02-09T09:55:45.364Z,2.08
2023-02-09T09:58:17.792Z,2.12
2023-02-09T10:00:45.331Z,2.25
2023-02-09T10:03:15.266Z,2.31
2023-02-09T10:05:43.688Z,2.33
2023-02-09T10:08:10.425Z,2.17
2023-02-09T10:10:56.274Z,2.23
2023-02-09T10:13:32.275Z,2.42
2023-02-09T10:15:59.295Z,2.51
2023-02-09T10:18:26.426Z,2.42
2023-02-09T10:20:56.868Z,2.52
2023-02-09T10:23:45.532Z,2.69
2023-02-09T10:26:12.133Z,2.82
2023-02-09T10:28:42.386Z,2.73
2023-02-09T10:31:19.349Z,2.60
2023-02-09T10:33:50.352Z,2.59
2023-02-09T10:36:33.811Z,2.68
2023-02-09T10:39:12.877Z,2.73
2023-02-09T10:41:42.035Z,2.68
2023-02-09T10:44:25.116Z,2.78
2023-02-09T10:47:23.949Z,2.82
2023-02-09T10:50:01.208Z,2.72
2023-02-09T10:52:34.468Z,2.93
2023-02-09T10:55:16.993Z,2.85
2023-02-09T10:57:43.630Z,2.93
2023-02-09T11:00:16.284Z,3.04
2023-02-09T11:02:49.926Z,2.91
2023-02-09T11:05:22.696Z,2.98
2023-02-09T11:07:56.389Z,3.08
2023-02-09T11:10:23.579Z,3.19
2023-02-09T11:12:50.326Z,3.25
2023-02-09T11:15:27.864Z,3.20
2023-02-09T11:18:16.924Z,3.25
2023-02-09T11:20:51.780Z,3.23
2023-02-09T11:23:32.491Z,3.15
2023-02-09T11:26:07.522Z,3.19
2023-02-09T11:28:47.787Z,3.25
2023-02-09T11:31:46.807Z,3.18
2023-02-09T11:34:46.745Z,3.17
2023-02-09T11:37:25.588Z,3.02
2023-02-09T11:40:19.741Z,3.10
2023-02-09T11:43:01.874Z,3.16
2023-02-09T11:45:31.580Z,3.19
2023-02-09T11:48:08.969Z,3.14
2023-02-09T11:51:08.210Z,3.10
2023-02-09T11:53:43.944Z,3.18
2023-02-09T11:56:16.594Z,3.22
2023-02-09T11:59:06.432Z,3.15
2023-02-09T12:01:51.684Z,3.21
2023-02-09T12:04:47.320Z,3.21
2023-02-09T12:07:35.349Z,3.17
2023-02-09T12:10:44.632Z,3.19
2023-02-09T12:13:32.262Z,3.38
2023-02-09T12:16:08.014Z,3.32
2023-02-09T12:18:36.005Z,3.36
2023-02-09T12:21:05.521Z,3.52
2023-02-09T12:23:50.350Z,3.47
2023-02-09T12:26:17.009Z,3.38
2023-02-09T12:29:16.830Z,3.39
2023-02-09T12:32:06.866Z,3.39
2023-02-09T12:34:46.609Z,3.41
2023-02-09T12:37:13.218Z,3.47
2023-02-09T12:40:07.855Z,3.53
2023-02-09T12:42:44.060Z,3.52
2023-02-09T12:45:32.251Z,3.56
2023-02-09T12:48:11.743Z,3.71
2023-02-09T12:50:54.533Z,3.49
2023-02-09T12:53:24.475Z,3.41
2023-02-09T12:56:30.616Z,3.40
2023-02-09T12:59:17.824Z,3.39
2023-02-09T13:02:06.446Z,3.50
2023-02-09T13:04:50.688Z,3.47
2023-02-09T13:07:49.236Z,3.44
2023-02-09T13:10:22.692Z,3.37
2023-02-09T13:13:13.348Z,3.37
2023-02-09T13:16:04.674Z,3.41
2023-02-09T13:18:52.235Z,3.33
2023-02-09T13:21:36.105Z,3.32
2023-02-09T13:24:09.735Z,3.32
2023-02-09T13:26:48.922Z,3.38
2023-02-09T13:29:21.318Z,3.32
2023-02-09T13:32:17.551Z,3.33
2023-02-09T13:34:56.745Z,3.33
2023-02-09T13:37:35.550Z,3.28
2023-02-09T13:40:15.731Z,3.32
2023-02-09T13:42:53.934Z,3.37
2023-02-09T13:45:21.258Z,3.39
2023-02-09T13:47:48.066Z,3.41
2023-02-09T13:50:18.412Z,3.42
2023-02-09T13:52:45.384Z,3.36
2023-02-09T13:55:13.663Z,3.36
2023-02-09T13:57:43.771Z,3.37
2023-02-09T14:00:13.449Z,3.35
2023-02-09T14:02:46.943Z,3.41
2023-02-09T14:05:32.377Z,3.36
2023-02-09T14:07:59.868Z,3.29
2023-02-09T14:10:28.969Z,3.32
2023-02-09T14:13:03.992Z,3.36
2023-02-09T14:15:52.290Z,3.31
2023-02-09T14:18:28.116Z,3.27
2023-02-09T14:21:04.025Z,3.45
2023-02-09T14:23:35.008Z,3.33
2023-02-09T14:26:15.399Z,3.28
2023-02-09T14:28:45.720Z,3.33
2023-02-09T14:31:19.513Z,3.35
2023-02-09T14:33:51.046Z,3.28
2023-02-09T14:36:36.453Z,3.28
2023-02-09T14:39:16.392Z,3.38
2023-02-09T14:42:18.610Z,3.30
2023-02-09T14:44:55.623Z,3.31
2023-02-09T14:47:39.322Z,3.35
2023-02-09T14:50:21.963Z,3.37
2023-02-09T14:52:53.402Z,3.35
2023-02-09T14:55:27.415Z,3.35
2023-02-09T14:57:54.148Z,3.24
2023-02-09T15:00:24.724Z,3.40
2023-02-09T15:02:53.037Z,3.30
2023-02-09T15:05:21.245Z,3.34
2023-02-09T15:07:51.210Z,3.33
2023-02-09T15:10:32.077Z,3.51
2023-02-09T15:12:59.652Z,3.30
2023-02-09T15:15:26.830Z,3.27
2023-02-09T15:17:55.285Z,3.19
2023-02-09T15:20:26.274Z,3.12
2023-02-09T15:22:54.334Z,3.16
2023-02-09T15:25:22.909Z,3.12
2023-02-09T15:27:57.283Z,3.06
2023-02-09T15:30:28.159Z,3.01
2023-02-09T15:32:54.846Z,3.08
2023-02-09T15:35:27.618Z,3.03
2023-02-09T15:38:02.111Z,2.92
2023-02-09T15:40:53.065Z,3.05
2023-02-09T15:43:40.148Z,3.00
2023-02-09T15:46:26.842Z,2.94
2023-02-09T15:48:53.535Z,2.94
2023-02-09T15:51:22.106Z,2.96
2023-02-09T15:53:49.011Z,2.98
2023-02-09T15:56:16.220Z,3.00
2023-02-09T15:58:45.910Z,2.96
2023-02-09T16:01:14.583Z,2.98
2023-02-09T16:03:41.393Z,2.94
2023-02-09T16:06:16.069Z,2.98
2023-02-09T16:08:44.192Z,2.93
2023-02-09T16:11:23.197Z,2.91
2023-02-09T16:13:50.453Z,3.00
2023-02-09T16:16:20.042Z,3.02
2023-02-09T16:18:47.245Z,3.05
2023-02-09T16:21:23.839Z,2.94
2023-02-09T16:23:53.066Z,2.92
2023-02-09T16:26:20.965Z,2.94
2023-02-09T16:28:47.716Z,3.00
2023-02-09T16:31:14.511Z,3.00
2023-02-09T16:33:43.214Z,3.02
2023-02-09T16:36:17.098Z,2.96
2023-02-09T16:38:44.179Z,3.08
2023-02-09T16:41:41.133Z,3.07
2023-02-09T16:44:19.004Z,3.09
2023-02-09T16:46:48.283Z,3.13
2023-02-09T16:49:31.634Z,3.11
2023-02-09T16:52:02.693Z,3.06
2023-02-09T16:54:33.134Z,3.08
2023-02-09T16:57:00.920Z,3.14
2023-02-09T16:59:27.664Z,3.12
2023-02-09T17:01:54.496Z,3.20
2023-02-09T17:04:21.229Z,3.15
2023-02-09T17:06:52.752Z,3.22
2023-02-09T17:09:19.427Z,3.20
2023-02-09T17:11:46.121Z,3.06
2023-02-09T17:14:12.821Z,3.01
2023-02-09T17:16:43.375Z,2.96
2023-02-09T17:19:15.388Z,3.05
2023-02-09T17:21:42.496Z,3.06
2023-02-09T17:24:18.392Z,3.09
2023-02-09T17:26:45.094Z,3.16
2023-02-09T17:29:12.097Z,3.18
2023-02-09T17:31:52.750Z,3.22
2023-02-09T17:34:26.866Z,3.14
2023-02-09T17:36:53.576Z,3.23
2023-02-09T17:39:20.551Z,3.19
2023-02-09T17:41:49.898Z,3.22
2023-02-09T17:44:26.376Z,3.23
2023-02-09T17:46:58.943Z,3.20
2023-02-09T17:49:25.666Z,3.20
2023-02-09T17:51:52.944Z,3.19
2023-02-09T17:54:20.828Z,3.25
2023-02-09T17:56:47.831Z,3.23
2023-02-09T17:59:14.905Z,3.25
2023-02-09T18:01:49.483Z,3.31
2023-02-09T18:04:22.200Z,3.30
2023-02-09T18:06:48.862Z,3.31
2023-02-09T18:09:15.555Z,3.41
2023-02-09T18:11:45.345Z,3.35
2023-02-09T18:14:13.966Z,3.34
2023-02-09T18:16:42.559Z,3.37
2023-02-09T18:19:10.882Z,3.41
2023-02-09T18:21:38.377Z,3.41
2023-02-09T18:24:06.372Z,3.44
2023-02-09T18:26:33.827Z,3.42
2023-02-09T18:29:00.547Z,3.43
2023-02-09T18:31:27.280Z,3.41
2023-02-09T18:33:56.045Z,3.43
2023-02-09T18:36:22.773Z,3.39
2023-02-09T18:38:50.985Z,3.41
2023-02-09T18:41:17.755Z,3.45
2023-02-09T18:43:44.730Z,3.43
2023-02-09T18:46:14.528Z,3.44
2023-02-09T18:48:41.285Z,3.45
2023-02-09T18:51:09.260Z,3.49
2023-02-09T18:53:37.613Z,3.44
2023-02-09T18:56:04.540Z,3.43
2023-02-09T18:58:31.481Z,3.49
2023-02-09T19:00:58.371Z,3.56
2023-02-09T19:03:25.178Z,3.56
2023-02-09T19:05:51.977Z,3.47
2023-02-09T19:08:18.652Z,3.53
2023-02-09T19:10:45.350Z,3.57
2023-02-09T19:13:11.998Z,3.58
2023-02-09T19:15:39.974Z,3.62
2023-02-09T19:18:06.682Z,3.75
2023-02-09T19:20:34.295Z,3.59
2023-02-09T19:23:02.547Z,3.61
2023-02-09T19:25:30.413Z,3.59
2023-02-09T19:27:57.219Z,3.64
2023-02-09T19:30:25.130Z,3.61
2023-02-09T19:32:54.065Z,3.63
2023-02-09T19:35:22.843Z,3.77
2023-02-09T19:37:57.383Z,3.74
2023-02-09T19:40:35.699Z,3.76
2023-02-09T19:43:03.838Z,3.71
2023-02-09T19:45:36.279Z,3.67
2023-02-09T19:48:05.592Z,3.67
2023-02-09T19:50:32.736Z,3.76
2023-02-09T19:52:59.545Z,3.74
2023-02-09T19:55:26.215Z,3.82
2023-02-09T19:57:52.878Z,3.83
2023-02-09T20:00:19.706Z,3.85
2023-02-09T20:02:47.343Z,3.95
2023-02-09T20:05:16.089Z,3.93
2023-02-09T20:07:43.485Z,3.95
2023-02-09T20:10:10.850Z,3.99
2023-02-09T20:12:37.483Z,4.06
2023-02-09T20:15:04.301Z,4.04
2023-02-09T20:17:30.927Z,4.10
2023-02-09T20:19:57.698Z,4.08
2023-02-09T20:22:24.355Z,4.12
2023-02-09T20:24:51.046Z,4.07
2023-02-09T20:27:19.105Z,4.13
2023-02-09T20:29:45.796Z,4.16
2023-02-09T20:32:12.560Z,4.16
2023-02-09T20:34:39.285Z,4.13
2023-02-09T20:37:05.929Z,4.12
2023-02-09T20:39:32.891Z,4.09
2023-02-09T20:42:18.794Z,4.13
2023-02-09T20:45:04.160Z,4.15
2023-02-09T20:47:30.889Z,4.15
2023-02-09T20:50:00.060Z,4.13
2023-02-09T20:52:29.240Z,4.10
2023-02-09T20:54:56.552Z,4.19
2023-02-09T20:57:29.267Z,4.19
2023-02-09T21:00:00.113Z,4.20
2023-02-09T21:02:27.573Z,4.27
2023-02-09T21:04:56.206Z,4.27
2023-02-09T21:07:23.095Z,4.24
2023-02-09T21:09:49.811Z,4.27
2023-02-09T21:12:16.501Z,4.27
2023-02-09T21:14:46.445Z,4.29
2023-02-09T21:17:13.596Z,4.26
2023-02-09T21:19:40.701Z,4.25
2023-02-09T21:22:07.408Z,4.25
2023-02-09T21:24:34.275Z,4.35
2023-02-09T21:27:00.903Z,4.26
2023-02-09T21:29:29.208Z,4.29
2023-02-09T21:31:56.555Z,4.23
2023-02-09T21:34:23.516Z,4.29
2023-02-09T21:36:50.251Z,4.37
2023-02-09T21:39:16.966Z,4.36
2023-02-09T21:42:02.188Z,4.30
2023-02-09T21:44:29.084Z,4.34
2023-02-09T21:46:55.764Z,4.45
2023-02-09T21:49:22.594Z,4.37
2023-02-09T21:51:49.728Z,4.40
2023-02-09T21:54:17.906Z,4.33
2023-02-09T21:56:45.152Z,4.40
2023-02-09T21:59:12.020Z,4.36
2023-02-09T22:01:39.571Z,4.30
2023-02-09T22:04:06.357Z,4.37
2023-02-09T22:06:33.154Z,4.34
2023-02-09T22:09:02.772Z,4.36
2023-02-09T22:11:29.919Z,4.44
2023-02-09T22:13:56.631Z,4.37
2023-02-09T22:16:23.956Z,4.38
2023-02-09T22:18:50.973Z,4.32
2023-02-09T22:21:18.352Z,4.34
2023-02-09T22:23:45.118Z,4.28
2023-02-09T22:26:15.057Z,4.24
2023-02-09T22:28:42.486Z,4.30
2023-02-09T22:31:12.783Z,4.27
2023-02-09T22:33:40.939Z,4.22
2023-02-09T22:36:13.700Z,4.30
2023-02-09T22:38:40.719Z,4.13
2023-02-09T22:41:21.282Z,4.13
2023-02-09T22:43:58.678Z,4.19
2023-02-09T22:46:28.630Z,4.17
2023-02-09T22:48:58.192Z,4.14
2023-02-09T22:51:28.310Z,4.10
2023-02-09T22:53:58.543Z,4.22
2023-02-09T22:56:26.341Z,4.22
2023-02-09T22:58:54.432Z,4.32
2023-02-09T23:01:21.671Z,4.27
2023-02-09T23:03:48.788Z,4.32
2023-02-09T23:06:20.732Z,4.32
2023-02-09T23:08:47.739Z,4.45
2023-02-09T23:11:17.155Z,4.38
2023-02-09T23:13:44.199Z,4.50
2023-02-09T23:16:16.640Z,4.45
2023-02-09T23:18:49.670Z,4.51
2023-02-09T23:21:17.809Z,4.58
2023-02-09T23:23:45.024Z,4.51
2023-02-09T23:26:12.387Z,4.56
2023-02-09T23:28:39.129Z,4.52
2023-02-09T23:31:07.543Z,4.47
2023-02-09T23:33:35.703Z,4.51
2023-02-09T23:36:07.495Z,4.55
2023-02-09T23:38:34.595Z,4.56
2023-02-09T23:41:06.732Z,4.55
2023-02-09T23:43:34.300Z,4.56
2023-02-09T23:46:02.340Z,4.57
2023-02-09T23:48:29.091Z,4.48
2023-02-09T23:51:04.185Z,4.44
2023-02-09T23:53:31.463Z,4.33
2023-02-09T23:56:03.785Z,4.36
2023-02-09T23:58:39.247Z,4.25
